Aéroclub Castres-Mazamet
ACCUEIL



METAR
LFCK 230230Z AUTO 27009KT 9999 OVC018 19/16 Q1011


Liens utiles


F.F.A
Météo France
OLIVIA
SIA
D.G.A.C

Bienvenue à l'aéroclub de Castres-Mazamet


** **


               


Actualités

 Petit-déjeuner au Club   
Publié le 18-May-2022    
Bonjour à tous, Nous vous proposons de nous retrouver le dimanche 25 mai pour un nouveau moment d’échanges accompagné de viennoiseries, café, ... et de quelques vols si le temps le permet! Merci de confirmer votre présence au plus tôt.


 Assemblée Générale   
Publié le 31-Mar-2022    
A tous les adhérents: l'Assemblée Générale du Club aura lieu le jeudi 21 avril à 18h30, à l'Hotel Mercure à Castres, route de Mazamet. Venez nombreux !


 Laché !   
Publié le 28-02-2022    
Un nouveau lâché aujourd'hui au club pour Benjamin Botica ! Félicitations.


 Arrivée du printemps   
Publié le 16-Feb-2022    
Afin de fêter l'arrivée du printemps, l'équipe d'animation propose à tous les adhérents un "petit déjeuner club" le dimanche 13 mars. Café, viennoiserie et jus d'orange offerts, apportez votre bonne humeur !


Voir plus